Time;durP1;ratioP1;P1;durP2;ratioP2;P2;SDS_P1;SDS_P2;PMS_P1;PMS_P2;Temp;Humidity;BMP_temperature;BMP_pressure;BME280_temperature;BME280_humidity;BME280_pressure;Samples;Min_cycle;Max_cycle;Signal;HPM_P1;HPM_P2
2020/12/29 00:01:35;;;;;;;12.87;11.67;;;;;;;-1.24;100.00;94833.25;5008443;28;20454;-71
2020/12/29 00:04:02;;;;;;;13.53;11.33;;;;;;;-1.14;100.00;94822.63;5006125;28;20201;-71
2020/12/29 00:06:29;;;;;;;10.70;9.80;;;;;;;-1.11;100.00;94811.09;5019446;28;20208;-70
2020/12/29 00:08:57;;;;;;;11.20;10.10;;;;;;;-1.19;100.00;94799.78;5018352;28;20476;-71
2020/12/29 00:11:24;;;;;;;10.83;9.83;;;;;;;-1.19;100.00;94798.94;5018279;28;20204;-70
2020/12/29 00:13:51;;;;;;;10.27;9.37;;;;;;;-1.30;100.00;94794.97;5004153;28;20229;-71
2020/12/29 00:16:18;;;;;;;10.30;9.30;;;;;;;-1.33;100.00;94788.31;5016255;28;20813;-71
2020/12/29 00:18:45;;;;;;;10.13;9.27;;;;;;;-1.33;100.00;94788.31;5006812;28;20224;-71
2020/12/29 00:21:17;;;;;;;9.90;8.90;;;;;;;-1.27;100.00;94794.63;5020750;28;20446;-71
2020/12/29 00:23:44;;;;;;;10.53;9.63;;;;;;;-1.29;100.00;94793.16;5017449;28;20620;-71
2020/12/29 00:26:13;;;;;;;12.13;10.97;;;;;;;-1.30;100.00;94784.56;5024067;28;20212;-71
2020/12/29 00:28:40;;;;;;;10.33;9.53;;;;;;;-1.19;100.00;94794.56;5023786;28;20473;-71
2020/12/29 00:31:07;;;;;;;10.37;9.43;;;;;;;-1.03;100.00;94798.06;5022212;28;20488;-71
2020/12/29 00:33:34;;;;;;;10.20;9.30;;;;;;;-0.98;100.00;94797.56;5023167;28;20448;-71
2020/12/29 00:36:02;;;;;;;10.27;9.37;;;;;;;-1.06;100.00;94793.22;5022539;28;20458;-71
2020/12/29 00:38:29;;;;;;;9.60;8.50;;;;;;;-1.08;100.00;94808.16;5026856;28;20263;-71
2020/12/29 00:40:56;;;;;;;9.20;8.50;;;;;;;-1.06;100.00;94803.59;5022772;28;20227;-72
2020/12/29 00:43:24;;;;;;;10.13;9.20;;;;;;;-1.09;100.00;94801.34;5024335;28;20208;-71
2020/12/29 00:45:51;;;;;;;9.23;7.73;;;;;;;-1.03;100.00;94804.09;5027250;28;20449;-71
2020/12/29 00:48:18;;;;;;;8.33;7.37;;;;;;;-0.95;100.00;94810.22;5023398;28;21580;-72
2020/12/29 00:50:45;;;;;;;9.40;8.60;;;;;;;-1.02;100.00;94805.69;5022641;28;20451;-70
2020/12/29 00:53:12;;;;;;;8.80;8.10;;;;;;;-1.05;100.00;94802.63;5022226;28;20236;-71
2020/12/29 00:55:39;;;;;;;9.27;8.40;;;;;;;-1.13;100.00;94805.28;5023211;28;20223;-70
2020/12/29 00:58:06;;;;;;;9.17;8.27;;;;;;;-1.12;100.00;94806.88;5015401;28;20505;-71
2020/12/29 01:00:33;;;;;;;8.97;8.17;;;;;;;-1.26;100.00;94808.41;5019525;28;20204;-71
2020/12/29 01:03:00;;;;;;;8.43;7.73;;;;;;;-1.24;100.00;94807.28;5022904;28;20455;-70
2020/12/29 01:05:27;;;;;;;8.67;7.93;;;;;;;-1.09;100.00;94802.16;5013014;28;20219;-71
2020/12/29 01:07:54;;;;;;;8.97;8.17;;;;;;;-1.12;100.00;94810.31;5012295;28;20481;-71
2020/12/29 01:10:21;;;;;;;7.77;7.07;;;;;;;-1.15;100.00;94812.44;5024844;28;20455;-72
2020/12/29 01:12:48;;;;;;;7.83;7.07;;;;;;;-1.06;100.00;94809.63;5025933;28;20208;-71
2020/12/29 01:15:15;;;;;;;7.37;6.77;;;;;;;-1.02;100.00;94810.06;5021184;28;20499;-71
2020/12/29 01:17:43;;;;;;;7.73;6.93;;;;;;;-1.04;100.00;94812.03;5020841;28;20484;-71
2020/12/29 01:20:10;;;;;;;7.57;6.73;;;;;;;-0.89;100.00;94807.75;5022501;28;20493;-70
2020/12/29 01:22:37;;;;;;;7.63;6.63;;;;;;;-0.86;100.00;94806.59;5024650;28;20539;-71
2020/12/29 01:25:04;;;;;;;7.33;6.63;;;;;;;-0.90;100.00;94820.91;5020311;28;20561;-71
2020/12/29 01:27:35;;;;;;;7.50;6.83;;;;;;;-0.84;100.00;94814.22;5025770;28;20672;-71
2020/12/29 01:30:02;;;;;;;7.27;6.67;;;;;;;-0.80;100.00;94812.91;5019138;28;20227;-72
2020/12/29 01:32:29;;;;;;;6.40;5.80;;;;;;;-0.85;100.00;94816.00;5019352;28;20893;-71
2020/12/29 01:34:56;;;;;;;6.63;6.03;;;;;;;-0.78;100.00;94818.75;5022418;28;20483;-71
2020/12/29 01:37:23;;;;;;;12.80;6.73;;;;;;;-0.73;100.00;94812.06;5021551;28;20450;-71
2020/12/29 01:39:50;;;;;;;7.13;6.27;;;;;;;-0.74;100.00;94820.84;5022327;28;20823;-71
2020/12/29 01:42:17;;;;;;;6.50;6.00;;;;;;;-0.60;100.00;94821.06;5019587;28;20822;-71
2020/12/29 01:44:44;;;;;;;5.93;5.53;;;;;;;-0.64;100.00;94814.59;5021062;28;20456;-71
2020/12/29 01:47:11;;;;;;;5.83;5.20;;;;;;;-0.63;100.00;94814.41;5024014;28;20673;-71
2020/12/29 01:49:38;;;;;;;6.03;5.63;;;;;;;-0.63;100.00;94822.22;5019320;28;21045;-70
2020/12/29 01:52:06;;;;;;;6.20;5.70;;;;;;;-0.64;100.00;94818.00;5021385;28;20466;-71
2020/12/29 01:54:33;;;;;;;5.90;5.50;;;;;;;-0.56;100.00;94822.34;5018429;28;20997;-71
2020/12/29 01:57:00;;;;;;;6.50;6.00;;;;;;;-0.56;100.00;94834.56;5020791;28;20820;-71
2020/12/29 01:59:27;;;;;;;7.73;7.07;;;;;;;-0.54;100.00;94835.19;5020882;28;20481;-71
2020/12/29 02:01:54;;;;;;;6.63;5.97;;;;;;;-0.53;100.00;94850.59;5020784;28;20463;-70
2020/12/29 02:04:22;;;;;;;6.50;6.00;;;;;;;-0.57;100.00;94841.53;5022097;28;20642;-69
2020/12/29 02:06:49;;;;;;;6.77;6.17;;;;;;;-0.56;100.00;94847.56;5020912;28;20439;-70
2020/12/29 02:09:18;;;;;;;6.43;5.93;;;;;;;-0.49;100.00;94859.69;5018846;28;20566;-71
2020/12/29 02:11:45;;;;;;;6.53;5.93;;;;;;;-0.59;100.00;94853.91;5019803;28;20208;-70
2020/12/29 02:14:12;;;;;;;6.60;6.10;;;;;;;-0.56;100.00;94855.34;5024656;28;20763;-70
2020/12/29 02:16:40;;;;;;;7.00;6.40;;;;;;;-0.54;100.00;94859.38;5020240;28;20368;-70
2020/12/29 02:19:07;;;;;;;6.70;6.10;;;;;;;-0.60;100.00;94854.88;5023750;28;20231;-71
2020/12/29 02:21:35;;;;;;;6.07;5.67;;;;;;;-0.56;100.00;94853.56;5021594;28;20450;-70
2020/12/29 02:24:04;;;;;;;6.43;5.93;;;;;;;-0.52;100.00;94854.03;5021863;28;20974;-71
2020/12/29 02:26:32;;;;;;;6.13;5.63;;;;;;;-0.53;100.00;94850.59;5023622;28;20447;-71
2020/12/29 02:28:59;;;;;;;6.13;5.73;;;;;;;-0.49;100.00;94841.47;5022517;28;20251;-71
2020/12/29 02:31:26;;;;;;;6.37;5.77;;;;;;;-0.53;100.00;94839.41;5011304;28;20208;-71
2020/12/29 02:33:53;;;;;;;6.80;6.20;;;;;;;-0.56;100.00;94834.56;5017826;28;20246;-70
2020/12/29 02:36:20;;;;;;;5.87;5.37;;;;;;;-0.47;100.00;94846.50;5022018;28;20207;-70
2020/12/29 03:09:19;;;;;;;5.20;4.50;;;;;;;-0.31;100.00;94850.81;5003105;28;20296;-72
2020/12/29 03:11:46;;;;;;;5.00;4.70;;;;;;;-0.30;100.00;94852.41;5005724;28;20251;-72
2020/12/29 03:14:14;;;;;;;4.30;4.00;;;;;;;-0.28;100.00;94854.84;5006342;28;20227;-71
2020/12/29 03:16:42;;;;;;;4.83;4.47;;;;;;;-0.18;100.00;94864.03;5004906;28;20216;-72
2020/12/29 03:19:21;;;;;;;3.97;3.77;;;;;;;-0.11;100.00;94858.13;5005988;28;20218;-71
2020/12/29 03:21:48;;;;;;;4.53;4.23;;;;;;;-0.03;100.00;94866.69;5001791;28;20640;-72
2020/12/29 03:24:16;;;;;;;4.67;4.30;;;;;;;-0.02;100.00;94873.50;5006796;28;20291;-72
2020/12/29 03:26:43;;;;;;;3.80;3.60;;;;;;;0.16;100.00;94869.78;5003547;28;20470;-74
2020/12/29 03:29:11;;;;;;;3.90;3.60;;;;;;;0.07;100.00;94865.63;5006111;28;20217;-72
2020/12/29 03:31:43;;;;;;;3.90;3.57;;;;;;;0.09;100.00;94861.06;5002571;28;20229;-70
2020/12/29 03:34:10;;;;;;;3.07;2.87;;;;;;;0.15;100.00;94862.94;5000789;28;20348;-71
2020/12/29 03:36:38;;;;;;;3.30;3.00;;;;;;;0.20;100.00;94865.03;5005695;28;20213;-72
2020/12/29 03:39:05;;;;;;;3.20;3.07;;;;;;;0.26;100.00;94865.16;5003291;28;20369;-72
2020/12/29 03:41:32;;;;;;;3.13;2.93;;;;;;;0.28;100.00;94868.38;5003679;28;20621;-70
2020/12/29 03:44:00;;;;;;;3.10;3.00;;;;;;;0.21;100.00;94867.47;5000795;28;20644;-71
2020/12/29 03:46:27;;;;;;;3.20;3.00;;;;;;;0.20;100.00;94863.25;5008887;28;20220;-73
2020/12/29 03:48:54;;;;;;;2.87;2.67;;;;;;;0.26;100.00;94870.34;5006062;28;20468;-73
2020/12/29 03:51:21;;;;;;;2.87;2.77;;;;;;;0.25;100.00;94875.72;5006937;28;20236;-72
2020/12/29 03:53:48;;;;;;;2.73;2.63;;;;;;;0.30;100.00;94878.63;5002522;28;20244;-73
2020/12/29 03:56:15;;;;;;;2.97;2.77;;;;;;;0.36;100.00;94877.09;5006021;28;20213;-72
2020/12/29 03:58:42;;;;;;;3.07;2.87;;;;;;;0.24;100.00;94879.31;5006307;28;20208;-72
2020/12/29 04:01:10;;;;;;;2.90;2.80;;;;;;;0.32;100.00;94879.25;5005094;28;20262;-73
2020/12/29 04:03:37;;;;;;;2.77;2.67;;;;;;;0.33;100.00;94883.47;5003990;28;20204;-73
2020/12/29 04:06:04;;;;;;;2.10;2.00;;;;;;;0.45;100.00;94883.84;5006607;28;20212;-72
2020/12/29 04:08:31;;;;;;;2.77;2.57;;;;;;;0.39;100.00;94888.00;5006722;28;21150;-73
2020/12/29 04:10:58;;;;;;;2.40;2.30;;;;;;;0.40;100.00;94886.19;5005728;28;20229;-72
2020/12/29 04:13:25;;;;;;;2.20;2.10;;;;;;;0.38;100.00;94886.38;5007153;28;20629;-72
2020/12/29 04:15:52;;;;;;;3.00;2.70;;;;;;;0.26;100.00;94891.19;5008235;28;20291;-71
2020/12/29 04:18:20;;;;;;;2.60;2.43;;;;;;;0.28;100.00;94891.81;5008793;28;20416;-72
2020/12/29 04:20:47;;;;;;;2.10;2.00;;;;;;;0.30;100.00;94901.25;5011379;28;20200;-74
2020/12/29 04:23:14;;;;;;;2.33;2.10;;;;;;;0.25;100.00;94907.81;5007026;28;20204;-73
2020/12/29 04:25:41;;;;;;;2.30;2.20;;;;;;;0.41;100.00;94903.44;5009423;28;20224;-74
2020/12/29 04:28:08;;;;;;;2.10;2.00;;;;;;;0.40;100.00;94907.03;5003613;28;20287;-73
2020/12/29 04:30:35;;;;;;;2.00;1.70;;;;;;;0.43;100.00;94914.50;5008700;28;20213;-72
2020/12/29 04:33:02;;;;;;;1.93;1.83;;;;;;;0.43;100.00;94909.28;5006786;28;20212;-73
2020/12/29 04:35:30;;;;;;;1.70;1.60;;;;;;;0.51;100.00;94906.59;5007815;28;20233;-73
2020/12/29 04:37:57;;;;;;;2.17;2.07;;;;;;;0.51;100.00;94918.81;5005016;28;20209;-74
2020/12/29 04:40:24;;;;;;;2.43;2.20;;;;;;;0.43;100.00;94909.28;5002022;28;20779;-73
2020/12/29 04:42:51;;;;;;;2.20;2.10;;;;;;;0.62;100.00;94922.81;5010369;28;20327;-72
2020/12/29 04:45:19;;;;;;;2.60;1.70;;;;;;;0.71;100.00;94927.75;5008579;28;20235;-71
2020/12/29 04:47:46;;;;;;;2.60;1.90;;;;;;;0.75;100.00;94928.19;5004053;28;20196;-70
2020/12/29 04:50:15;;;;;;;1.67;1.63;;;;;;;0.69;100.00;94937.53;5006558;28;20511;-72
2020/12/29 04:52:45;;;;;;;1.80;1.77;;;;;;;0.69;100.00;94936.75;5006162;28;20223;-71
2020/12/29 04:55:28;;;;;;;1.90;1.80;;;;;;;0.76;100.00;94942.03;5009208;28;20224;-73
2020/12/29 04:57:55;;;;;;;1.70;1.60;;;;;;;0.81;100.00;94940.53;5001668;28;20211;-72
2020/12/29 05:00:23;;;;;;;1.73;1.73;;;;;;;0.77;100.00;94947.09;5010257;28;20208;-73
2020/12/29 05:02:50;;;;;;;2.17;1.57;;;;;;;0.72;100.00;94946.81;5004563;28;20248;-72
2020/12/29 05:05:17;;;;;;;1.90;1.80;;;;;;;0.63;100.00;94942.66;5011836;28;20200;-73
2020/12/29 05:07:47;;;;;;;1.60;1.50;;;;;;;0.64;100.00;94947.69;5007162;28;20223;-72
2020/12/29 05:10:14;;;;;;;1.40;1.37;;;;;;;0.86;100.00;94945.22;5003324;28;20216;-72
2020/12/29 05:12:47;;;;;;;1.47;1.43;;;;;;;0.92;100.00;94951.50;5008136;28;20753;-71
2020/12/29 05:15:15;;;;;;;2.07;1.97;;;;;;;0.88;100.00;94948.44;5006108;28;20531;-72
2020/12/29 05:17:42;;;;;;;1.30;1.30;;;;;;;0.90;100.00;94958.69;4996701;28;20216;-73
2020/12/29 05:20:09;;;;;;;1.27;1.27;;;;;;;1.00;100.00;94974.91;5001463;28;20477;-71
2020/12/29 05:22:38;;;;;;;1.13;1.13;;;;;;;1.01;100.00;94976.53;4990789;28;20340;-72
2020/12/29 05:25:06;;;;;;;1.83;1.60;;;;;;;1.11;100.00;94987.50;5002455;28;20209;-67
2020/12/29 05:27:37;;;;;;;1.53;1.47;;;;;;;1.08;100.00;94987.03;4998517;28;20232;-70
2020/12/29 05:30:05;;;;;;;1.77;1.63;;;;;;;1.34;98.65;94991.00;5006229;28;20310;-70
2020/12/29 05:32:37;;;;;;;1.47;1.47;;;;;;;1.19;98.38;94993.59;5003034;28;20237;-73
2020/12/29 05:35:10;;;;;;;1.57;1.47;;;;;;;1.04;100.00;94996.19;5010915;28;20319;-72
2020/12/29 05:37:38;;;;;;;1.77;1.70;;;;;;;0.97;99.66;94996.91;5007107;28;20213;-72
2020/12/29 05:40:26;;;;;;;1.30;1.30;;;;;;;0.95;98.58;95014.53;5001907;28;20208;-73
2020/12/29 05:42:54;;;;;;;1.20;1.20;;;;;;;0.90;98.71;95013.44;5001983;28;20243;-73
2020/12/29 05:45:24;;;;;;;2.63;1.73;;;;;;;0.96;98.30;94997.91;5010817;28;20504;-73
2020/12/29 05:47:55;;;;;;;1.23;1.23;;;;;;;0.91;98.45;95002.84;5005214;28;20221;-73
2020/12/29 05:50:23;;;;;;;1.50;1.40;;;;;;;0.91;97.64;95002.84;5005532;28;20216;-73
2020/12/29 05:52:53;;;;;;;1.80;1.70;;;;;;;0.97;96.96;95009.94;4996892;28;20328;-73
2020/12/29 05:55:21;;;;;;;1.40;1.30;;;;;;;1.11;95.69;95010.97;5001433;28;20228;-71
2020/12/29 05:58:01;;;;;;;2.17;1.97;;;;;;;1.09;96.23;95015.56;5004208;28;20217;-72
2020/12/29 06:00:28;;;;;;;2.10;1.50;;;;;;;1.09;96.33;95020.78;4999675;28;20221;-75
2020/12/29 06:02:56;;;;;;;2.40;1.70;;;;;;;1.16;95.45;95020.88;5007668;28;20788;-71
2020/12/29 06:05:24;;;;;;;1.57;1.47;;;;;;;1.25;94.57;95030.22;5005745;28;20204;-72
2020/12/29 06:07:55;;;;;;;1.93;1.43;;;;;;;1.38;93.91;95037.44;5002213;28;20708;-71
2020/12/29 06:10:22;;;;;;;1.60;1.50;;;;;;;1.33;94.75;95044.19;5004301;28;20307;-72
2020/12/29 06:12:54;;;;;;;1.23;1.23;;;;;;;1.37;94.54;95048.88;5006148;28;20232;-73
2020/12/29 06:15:27;;;;;;;1.30;1.30;;;;;;;1.40;93.04;95045.91;5006126;28;20229;-71
2020/12/29 06:17:56;;;;;;;1.77;1.60;;;;;;;1.40;92.34;95040.69;5003347;28;20352;-72
2020/12/29 06:20:23;;;;;;;1.40;1.30;;;;;;;1.26;94.17;95041.47;4998599;28;20205;-72
2020/12/29 06:22:51;;;;;;;1.33;1.23;;;;;;;1.26;95.28;95052.72;5005526;28;20757;-71
2020/12/29 06:25:20;;;;;;;1.67;1.57;;;;;;;1.08;95.69;95052.22;5004481;28;20678;-71
2020/12/29 06:27:51;;;;;;;1.53;1.43;;;;;;;1.04;97.73;95053.56;5002783;28;20300;-71
2020/12/29 06:30:20;;;;;;;2.00;1.90;;;;;;;1.25;95.92;95061.53;4997055;28;20215;-72
2020/12/29 06:32:49;;;;;;;1.20;1.20;;;;;;;1.15;96.95;95056.56;5002265;28;20308;-71
2020/12/29 06:35:17;;;;;;;1.83;1.73;;;;;;;1.11;96.74;95055.31;5009660;28;20231;-69
2020/12/29 06:37:50;;;;;;;2.00;1.90;;;;;;;1.31;95.27;95067.84;5002572;28;20289;-69
2020/12/29 06:40:18;;;;;;;1.40;1.30;;;;;;;1.29;95.79;95072.41;4999110;28;20212;-71
2020/12/29 06:42:47;;;;;;;2.03;1.60;;;;;;;1.36;95.48;95072.53;5007247;28;20232;-70
2020/12/29 06:45:14;;;;;;;1.83;1.73;;;;;;;1.26;95.87;95072.78;5006242;28;20610;-71
2020/12/29 06:47:44;;;;;;;2.10;1.20;;;;;;;1.33;94.45;95073.72;5005428;28;20208;-73
2020/12/29 06:50:23;;;;;;;1.50;1.40;;;;;;;1.40;93.48;95077.22;5000623;28;20668;-70
2020/12/29 06:52:55;;;;;;;1.97;1.70;;;;;;;1.38;94.23;95081.81;5006583;28;20335;-72
2020/12/29 06:55:22;;;;;;;2.00;1.90;;;;;;;1.39;92.92;95082.59;5002723;28;20228;-71
2020/12/29 06:57:50;;;;;;;1.33;1.33;;;;;;;1.27;94.19;95082.22;5008704;28;20208;-71
2020/12/29 07:00:22;;;;;;;4.07;1.50;;;;;;;1.36;97.29;95078.56;4997593;28;20593;-70
2020/12/29 07:02:50;;;;;;;1.67;1.57;;;;;;;1.54;94.29;95087.84;5000531;28;20240;-71
2020/12/29 07:05:20;;;;;;;1.33;1.33;;;;;;;1.57;93.75;95092.69;4996310;28;20204;-69
2020/12/29 07:07:57;;;;;;;1.67;1.57;;;;;;;1.50;94.59;95089.19;4996439;28;20635;-69
2020/12/29 07:10:29;;;;;;;1.33;1.23;;;;;;;1.57;94.58;95096.13;4992842;28;20217;-70
2020/12/29 07:13:04;;;;;;;1.30;1.20;;;;;;;1.58;93.09;95102.97;4994816;28;20648;-69
2020/12/29 07:15:44;;;;;;;2.13;1.60;;;;;;;1.70;93.92;95098.09;5000872;28;20584;-71
2020/12/29 07:18:11;;;;;;;1.57;1.47;;;;;;;1.69;91.61;95099.09;4996254;28;20216;-70
2020/12/29 07:20:38;;;;;;;1.30;1.30;;;;;;;1.72;93.22;95101.38;4995630;28;20216;-71
2020/12/29 07:23:07;;;;;;;1.30;1.20;;;;;;;1.70;92.02;95105.13;4999769;28;20208;-69
2020/12/29 07:25:36;;;;;;;1.50;1.40;;;;;;;1.79;91.83;95108.47;5004968;28;20666;-72
2020/12/29 07:28:04;;;;;;;1.10;1.00;;;;;;;1.84;91.25;95101.69;5000258;28;20205;-72
2020/12/29 07:30:32;;;;;;;1.87;1.30;;;;;;;1.99;89.78;95112.16;5001965;28;20208;-72
2020/12/29 07:33:02;;;;;;;1.53;1.43;;;;;;;1.97;90.18;95110.72;4998977;28;20577;-70
2020/12/29 07:35:31;;;;;;;1.63;1.13;;;;;;;1.92;90.61;95123.53;5003915;28;20615;-70
2020/12/29 07:38:01;;;;;;;1.40;1.30;;;;;;;1.79;91.15;95121.53;4997689;28;20213;-72
2020/12/29 07:40:28;;;;;;;1.77;1.33;;;;;;;1.84;91.18;95122.59;4998861;28;20225;-72
2020/12/29 07:42:55;;;;;;;1.93;1.60;;;;;;;1.80;91.20;95131.00;4997481;28;20243;-69
2020/12/29 07:45:23;;;;;;;1.53;1.20;;;;;;;1.80;91.01;95138.81;4998251;28;20727;-70
2020/12/29 07:47:51;;;;;;;2.70;1.40;;;;;;;1.81;91.05;95153.50;5009629;28;20215;-71
2020/12/29 07:50:18;;;;;;;1.63;1.20;;;;;;;1.95;90.86;95152.69;5004079;28;20219;-71
2020/12/29 07:52:45;;;;;;;1.87;1.63;;;;;;;1.92;90.70;95153.03;5006899;28;20236;-70
2020/12/29 07:55:13;;;;;;;6.73;3.20;;;;;;;1.90;91.31;95162.06;5007496;28;20242;-72
2020/12/29 07:57:41;;;;;;;3.23;2.07;;;;;;;1.89;92.05;95166.47;5004463;28;20816;-71
2020/12/29 08:00:09;;;;;;;2.17;1.53;;;;;;;1.85;91.94;95162.59;5005315;28;20200;-72
2020/12/29 08:02:36;;;;;;;1.50;1.40;;;;;;;1.85;92.45;95184.28;5007279;28;20354;-71
2020/12/29 08:05:04;;;;;;;1.23;1.13;;;;;;;1.99;89.85;95192.31;5004520;28;20217;-71
2020/12/29 08:07:31;;;;;;;5.73;3.13;;;;;;;2.17;92.72;95173.69;5009609;28;20274;-70
2020/12/29 08:10:08;;;;;;;0.93;0.93;;;;;;;2.14;89.78;95181.88;5004301;28;20209;-72
2020/12/29 08:12:35;;;;;;;1.03;1.00;;;;;;;2.19;88.40;95182.16;5004125;28;20477;-70
2020/12/29 08:15:03;;;;;;;1.47;1.37;;;;;;;2.12;89.41;95189.09;5006540;28;21019;-71
2020/12/29 08:17:30;;;;;;;1.30;1.00;;;;;;;2.22;88.78;95194.84;5009937;28;20538;-70
2020/12/29 08:19:58;;;;;;;1.07;1.00;;;;;;;2.23;88.66;95196.47;5008223;28;20244;-70
2020/12/29 08:22:27;;;;;;;2.43;1.37;;;;;;;2.30;88.96;95205.22;5002786;28;20783;-70
2020/12/29 08:24:55;;;;;;;2.07;1.20;;;;;;;2.26;88.79;95211.78;5006892;28;20298;-71
2020/12/29 08:27:23;;;;;;;1.10;1.10;;;;;;;2.37;88.68;95207.09;5001164;28;20236;-70
2020/12/29 08:29:50;;;;;;;2.77;1.10;;;;;;;2.46;87.97;95217.28;5005187;28;20204;-71
2020/12/29 08:32:22;;;;;;;2.53;1.97;;;;;;;2.46;88.53;95217.28;5007711;28;20241;-69
2020/12/29 08:34:49;;;;;;;1.50;1.17;;;;;;;2.45;88.66;95222.66;5009422;28;20643;-69
2020/12/29 08:37:23;;;;;;;3.60;1.20;;;;;;;2.41;89.57;95232.69;5003407;28;20553;-70
2020/12/29 08:40:08;;;;;;;8.50;5.07;;;;;;;2.49;90.45;95242.25;5004367;28;20203;-70
2020/12/29 08:42:50;;;;;;;1.70;1.60;;;;;;;2.56;88.64;95245.75;5026978;23;20536;-66
2020/12/29 08:45:25;;;;;;;1.40;1.30;;;;;;;2.73;87.09;95263.88;5010935;28;20475;-69
2020/12/29 08:47:55;;;;;;;1.40;1.30;;;;;;;2.73;86.86;95277.75;5017092;28;20228;-69
2020/12/29 08:50:24;;;;;;;1.63;1.17;;;;;;;2.73;87.16;95277.75;5022861;28;20227;-69
2020/12/29 08:52:53;;;;;;;1.33;1.33;;;;;;;2.84;86.91;95288.75;5018273;28;20541;-70
2020/12/29 08:55:27;;;;;;;7.20;3.70;;;;;;;2.68;90.09;95305.44;5011185;28;20229;-69
2020/12/29 08:57:56;;;;;;;8.00;4.30;;;;;;;2.31;94.52;95319.22;5014044;28;20201;-69
2020/12/29 09:00:23;;;;;;;5.20;3.80;;;;;;;1.94;98.50;95325.25;5020349;28;20209;-69
2020/12/29 09:02:50;;;;;;;1.00;1.00;;;;;;;1.51;100.00;95351.81;5019206;28;20231;-69
2020/12/29 09:05:22;;;;;;;3.27;3.07;;;;;;;1.09;100.00;95344.22;5018815;28;20211;-68
2020/12/29 09:07:50;;;;;;;6.17;3.23;;;;;;;0.80;100.00;95350.81;5020058;28;20259;-69
2020/12/29 09:10:17;;;;;;;2.77;2.47;;;;;;;0.78;100.00;95365.81;5020146;28;20474;-69
2020/12/29 09:12:44;;;;;;;2.50;2.33;;;;;;;0.68;100.00;95367.81;5022576;28;20228;-69
2020/12/29 09:15:13;;;;;;;3.10;2.27;;;;;;;0.66;100.00;95377.59;5021072;28;20235;-69
2020/12/29 09:17:42;;;;;;;3.30;3.00;;;;;;;0.59;100.00;95384.47;5019286;28;20754;-71
2020/12/29 09:20:11;;;;;;;1.20;1.20;;;;;;;0.56;100.00;95391.59;5016486;28;20231;-69
2020/12/29 09:22:55;;;;;;;5.73;5.13;;;;;;;0.49;100.00;95402.88;5018769;28;20339;-67
2020/12/29 09:25:23;;;;;;;2.27;2.07;;;;;;;0.40;100.00;95422.91;5014428;28;20702;-68
2020/12/29 09:27:50;;;;;;;0.60;0.60;;;;;;;0.36;100.00;95427.63;5013865;28;20208;-68
2020/12/29 09:30:17;;;;;;;3.80;3.20;;;;;;;0.35;100.00;95435.63;5018028;28;20573;-68
2020/12/29 09:32:44;;;;;;;3.43;3.10;;;;;;;0.38;100.00;95451.75;5024145;28;20255;-68
2020/12/29 09:35:27;;;;;;;1.10;1.10;;;;;;;0.37;100.00;95442.28;5022600;28;20275;-68
2020/12/29 09:37:57;;;;;;;1.00;1.00;;;;;;;0.33;100.00;95455.81;5016151;28;20232;-68
2020/12/29 09:40:25;;;;;;;0.90;0.90;;;;;;;0.42;100.00;95460.03;5020889;28;20211;-69
2020/12/29 09:42:52;;;;;;;0.80;0.80;;;;;;;0.38;100.00;95463.94;5024295;28;20239;-71
2020/12/29 09:45:19;;;;;;;0.70;0.70;;;;;;;0.41;100.00;95461.84;5021495;28;20204;-71
2020/12/29 09:47:46;;;;;;;2.03;1.67;;;;;;;0.48;100.00;95476.81;5021938;28;20637;-70
2020/12/29 09:50:14;;;;;;;2.30;2.10;;;;;;;0.48;100.00;95474.22;5023932;28;20216;-69
2020/12/29 09:52:41;;;;;;;3.67;3.37;;;;;;;0.53;100.00;95490.19;5020778;28;20251;-69
2020/12/29 09:55:09;;;;;;;5.10;4.67;;;;;;;0.57;100.00;95486.25;5018516;28;20228;-70
2020/12/29 09:57:36;;;;;;;6.10;5.50;;;;;;;0.65;100.00;95496.69;5021536;28;20209;-69
2020/12/29 10:00:04;;;;;;;4.37;3.87;;;;;;;0.68;100.00;95487.72;5015104;28;20607;-67
2020/12/29 10:02:31;;;;;;;3.77;3.43;;;;;;;0.69;100.00;95500.59;5014118;28;20252;-70
2020/12/29 10:04:59;;;;;;;2.90;2.73;;;;;;;0.68;100.00;95505.97;5014256;28;20237;-69
2020/12/29 10:07:26;;;;;;;2.37;2.20;;;;;;;0.71;100.00;95511.66;5016687;28;20209;-70
2020/12/29 10:09:53;;;;;;;2.13;1.93;;;;;;;0.76;100.00;95519.00;5022649;28;20580;-70
2020/12/29 10:12:21;;;;;;;1.50;1.40;;;;;;;0.76;100.00;95516.41;5012264;28;20233;-70
2020/12/29 10:14:48;;;;;;;1.40;1.40;;;;;;;0.74;100.00;95536.59;5015970;28;20232;-70
2020/12/29 10:17:15;;;;;;;2.30;2.20;;;;;;;0.73;100.00;95540.19;5022696;28;20200;-68
2020/12/29 10:19:42;;;;;;;2.80;2.60;;;;;;;0.67;100.00;95531.22;5020689;28;20372;-69
2020/12/29 10:22:09;;;;;;;4.13;3.73;;;;;;;0.78;100.00;95544.94;5016189;28;20275;-67
2020/12/29 10:24:36;;;;;;;5.63;4.17;;;;;;;1.03;100.00;95545.72;5018393;28;20460;-68
2020/12/29 10:27:03;;;;;;;3.27;2.97;;;;;;;0.92;100.00;95544.25;5019459;28;20710;-69
2020/12/29 10:29:31;;;;;;;3.50;3.30;;;;;;;0.94;100.00;95554.50;5021941;28;20371;-68
2020/12/29 10:31:58;;;;;;;2.87;2.67;;;;;;;0.99;100.00;95557.47;5017847;28;20232;-68
2020/12/29 10:34:25;;;;;;;2.90;2.57;;;;;;;0.86;100.00;95550.94;5024581;28;20208;-69
2020/12/29 10:36:52;;;;;;;2.50;2.33;;;;;;;0.90;100.00;95566.25;5014674;28;20466;-68
2020/12/29 10:39:19;;;;;;;2.10;2.00;;;;;;;0.82;100.00;95567.88;5010407;28;20220;-68
2020/12/29 10:41:46;;;;;;;5.37;4.87;;;;;;;0.92;100.00;95572.94;5014101;28;20255;-69
2020/12/29 10:44:13;;;;;;;15.73;14.37;;;;;;;0.90;100.00;95574.06;5015754;28;20608;-68
2020/12/29 10:46:45;;;;;;;3.03;2.83;;;;;;;0.90;100.00;95574.06;5011726;28;20201;-67
2020/12/29 10:49:13;;;;;;;4.03;3.73;;;;;;;1.02;100.00;95583.22;5012286;28;20395;-68
2020/12/29 10:51:40;;;;;;;2.33;2.13;;;;;;;0.90;100.00;95590.56;5010997;28;20231;-68
2020/12/29 10:54:07;;;;;;;2.30;2.20;;;;;;;1.10;100.00;95590.22;5017303;28;20647;-68
2020/12/29 10:56:35;;;;;;;2.40;2.23;;;;;;;0.99;100.00;95596.59;5014071;28;20220;-67
2020/12/29 10:59:02;;;;;;;2.27;2.17;;;;;;;1.08;100.00;95615.66;5020992;28;20227;-68
2020/12/29 11:01:29;;;;;;;2.53;2.40;;;;;;;1.22;100.00;95601.97;5022989;28;20521;-68
2020/12/29 11:03:57;;;;;;;1.70;1.60;;;;;;;1.28;100.00;95611.75;5017957;28;20208;-68
2020/12/29 11:06:24;;;;;;;1.90;1.80;;;;;;;1.26;100.00;95613.69;5017711;28;20211;-68
2020/12/29 11:08:52;;;;;;;1.40;1.30;;;;;;;1.24;100.00;95607.00;5018539;28;20204;-67
2020/12/29 11:11:19;;;;;;;1.47;1.47;;;;;;;1.17;100.00;95608.63;5021170;28;20786;-67
2020/12/29 11:13:47;;;;;;;1.20;1.20;;;;;;;1.29;100.00;95617.75;5017377;28;20238;-68
2020/12/29 11:16:15;;;;;;;1.10;1.10;;;;;;;1.30;100.00;95628.03;5022429;28;20216;-68
2020/12/29 11:18:42;;;;;;;5.30;1.60;;;;;;;1.38;100.00;95634.22;5019676;28;20690;-68
2020/12/29 11:21:11;;;;;;;1.00;1.00;;;;;;;1.34;100.00;95625.09;5020235;28;20686;-67
2020/12/29 11:23:38;;;;;;;1.10;1.10;;;;;;;1.36;100.00;95631.81;5012750;28;20203;-66
2020/12/29 11:26:05;;;;;;;2.90;2.70;;;;;;;1.30;100.00;95633.25;5016387;28;20200;-68
2020/12/29 11:28:32;;;;;;;3.70;3.50;;;;;;;1.28;100.00;95631.78;5014790;28;20727;-67
2020/12/29 11:30:59;;;;;;;1.67;1.60;;;;;;;1.30;100.00;95645.47;5012754;28;20204;-68
2020/12/29 11:33:26;;;;;;;2.43;2.23;;;;;;;1.33;100.00;95652.19;5016095;28;20388;-69
2020/12/29 11:35:53;;;;;;;2.83;2.60;;;;;;;1.43;100.00;95658.03;5018458;28;20227;-69
2020/12/29 11:38:21;;;;;;;3.47;3.17;;;;;;;1.56;100.00;95658.38;5020734;28;20215;-69
2020/12/29 11:40:49;;;;;;;5.03;4.63;;;;;;;1.58;100.00;95666.03;5016324;28;20677;-69
2020/12/29 11:43:16;;;;;;;3.50;3.20;;;;;;;1.69;100.00;95670.09;5018914;28;20236;-68
2020/12/29 11:45:43;;;;;;;2.47;2.27;;;;;;;1.64;100.00;95667.97;5016869;28;20681;-69
2020/12/29 11:48:10;;;;;;;1.90;1.80;;;;;;;1.58;100.00;95672.06;5015727;28;20193;-69
2020/12/29 11:50:37;;;;;;;1.77;1.67;;;;;;;1.93;100.00;95678.88;5016207;28;20516;-67
2020/12/29 11:53:04;;;;;;;1.67;1.67;;;;;;;1.88;100.00;95672.34;5015609;28;20523;-66
2020/12/29 11:55:32;;;;;;;1.17;1.17;;;;;;;2.49;100.00;95678.03;5018056;28;20304;-69
2020/12/29 11:57:59;;;;;;;1.20;1.10;;;;;;;2.32;100.00;95683.34;5012359;28;20507;-70
2020/12/29 12:00:26;;;;;;;1.43;1.33;;;;;;;2.15;100.00;95685.19;5015980;28;20209;-69
2020/12/29 12:02:53;;;;;;;1.93;1.83;;;;;;;2.23;100.00;95692.16;5018526;28;20542;-69
2020/12/29 12:05:20;;;;;;;1.90;1.80;;;;;;;2.28;100.00;95692.50;5010338;28;20212;-68
2020/12/29 12:07:47;;;;;;;1.80;1.37;;;;;;;2.35;100.00;95703.06;5015849;28;20746;-69
2020/12/29 12:10:14;;;;;;;1.60;1.50;;;;;;;2.25;100.00;95701.47;5019106;28;20645;-68